createdAt,value
2022-08-19T00:02:20.037Z,100825.19
2022-08-19T00:04:53.496Z,100816.97
2022-08-19T00:07:21.597Z,100826.00
2022-08-19T00:09:49.708Z,100827.91
2022-08-19T00:12:17.601Z,100822.44
2022-08-19T00:14:45.403Z,100834.22
2022-08-19T00:17:13.658Z,100836.97
2022-08-19T00:19:42.548Z,100829.81
2022-08-19T00:22:11.663Z,100830.66
2022-08-19T00:24:39.508Z,100810.00
2022-08-19T00:27:26.475Z,100820.78
2022-08-19T00:29:54.907Z,100824.34
2022-08-19T00:32:23.035Z,100820.78
2022-08-19T00:34:54.343Z,100826.25
2022-08-19T00:37:24.117Z,100829.81
2022-08-19T00:39:53.091Z,100830.94
2022-08-19T00:42:21.408Z,100826.25
2022-08-19T00:44:50.166Z,100835.31
2022-08-19T00:47:17.936Z,100735.47
2022-08-19T00:49:51.645Z,100816.41
2022-08-19T00:52:22.066Z,100825.44
2022-08-19T00:54:52.904Z,100821.59
2022-08-19T00:57:22.514Z,100807.19
2022-08-19T01:00:00.299Z,100816.41
2022-08-19T01:02:30.958Z,100821.88
2022-08-19T01:04:58.722Z,100736.88
2022-08-19T01:07:26.462Z,100826.53
2022-08-19T01:09:55.744Z,100823.50
2022-08-19T01:12:23.591Z,100824.63
2022-08-19T01:14:51.833Z,100822.94
2022-08-19T01:17:19.812Z,100824.63
2022-08-19T01:19:48.340Z,100817.16
2022-08-19T01:22:21.600Z,100819.06
2022-08-19T01:24:55.790Z,100824.84
2022-08-19T01:27:24.377Z,100816.66
2022-08-19T01:29:52.810Z,100815.50
2022-08-19T01:32:33.683Z,100819.38
2022-08-19T01:35:03.157Z,100820.22
2022-08-19T01:37:31.445Z,100811.16
2022-08-19T01:40:00.849Z,100811.16
2022-08-19T01:42:30.212Z,100814.75
2022-08-19T01:44:58.467Z,100773.50
2022-08-19T01:47:26.307Z,100812.25
2022-08-19T01:49:54.383Z,100817.47
2022-08-19T01:52:22.195Z,100810.34
2022-08-19T01:54:50.083Z,100808.44
2022-08-19T01:57:19.317Z,100800.22
2022-08-19T01:59:47.160Z,100801.28
2022-08-19T02:02:14.968Z,100793.59
2022-08-19T02:04:43.100Z,100805.69
2022-08-19T02:07:11.005Z,100793.25
2022-08-19T02:09:40.285Z,100795.81
2022-08-19T02:12:09.658Z,100806.78
2022-08-19T02:14:38.850Z,100806.78
2022-08-19T02:17:06.602Z,100811.41
2022-08-19T02:19:34.662Z,100812.25
2022-08-19T02:22:02.481Z,100818.53
2022-08-19T02:24:30.289Z,100806.69
2022-08-19T02:26:58.286Z,100809.50
2022-08-19T02:29:26.477Z,100803.19
2022-08-19T02:31:55.659Z,100797.16
2022-08-19T02:34:23.531Z,100781.13
2022-08-19T02:36:52.004Z,100806.78
2022-08-19T02:39:19.728Z,100820.47
2022-08-19T02:41:47.489Z,100822.34
2022-08-19T02:44:30.529Z,100823.19
2022-08-19T02:47:00.628Z,100824.03
2022-08-19T02:49:28.717Z,100830.34
2022-08-19T02:51:56.496Z,100820.38
2022-08-19T02:54:24.334Z,100834.13
2022-08-19T02:56:52.478Z,100836.88
2022-08-19T02:59:22.965Z,100822.53
2022-08-19T03:01:50.885Z,100832.47
2022-08-19T03:04:21.322Z,100825.59
2022-08-19T03:06:49.212Z,100834.38
2022-08-19T03:09:17.375Z,100828.09
2022-08-19T03:11:45.211Z,100808.09
2022-08-19T03:14:13.779Z,100836.03
2022-08-19T03:16:43.939Z,100831.41
2022-08-19T03:19:12.011Z,100809.25
2022-08-19T03:21:41.255Z,100827.00
2022-08-19T03:24:09.977Z,100829.75
2022-08-19T03:26:40.683Z,100830.84
2022-08-19T03:29:10.212Z,100826.16
2022-08-19T03:31:44.424Z,100808.03
2022-08-19T03:34:20.788Z,100819.53
2022-08-19T03:36:50.100Z,100835.22
2022-08-19T03:39:18.476Z,100833.31
2022-08-19T03:41:48.488Z,100832.47
2022-08-19T03:44:19.060Z,100831.66
2022-08-19T03:46:47.631Z,100846.16
2022-08-19T03:49:15.441Z,100850.00
2022-08-19T03:51:43.673Z,100834.22
2022-08-19T03:54:14.699Z,100847.00
2022-08-19T03:56:43.026Z,100841.19
2022-08-19T03:59:12.563Z,100849.72
2022-08-19T04:01:40.412Z,100847.00
2022-08-19T04:04:08.191Z,100850.25
2022-08-19T04:06:39.428Z,100858.78
2022-08-19T04:09:09.133Z,100854.38
2022-08-19T04:11:44.533Z,100821.78
2022-08-19T04:14:13.604Z,100857.13
2022-08-19T04:16:41.416Z,100857.13
2022-08-19T04:19:09.549Z,100843.44
2022-08-19T04:21:37.396Z,100837.94
2022-08-19T04:24:05.792Z,100847.00
2022-08-19T04:26:35.094Z,100852.47
2022-08-19T04:29:10.436Z,100847.25
2022-08-19T04:31:40.015Z,100849.72
2022-08-19T04:34:09.013Z,100844.25
2022-08-19T04:36:38.082Z,100842.59
2022-08-19T04:39:07.141Z,100841.94
2022-08-19T04:41:52.300Z,100850.81
2022-08-19T04:44:21.587Z,100863.69
2022-08-19T04:46:51.489Z,100869.16
2022-08-19T04:49:22.835Z,100867.22
2022-08-19T04:51:50.833Z,100865.31
2022-08-19T04:54:30.934Z,100871.91
2022-08-19T04:57:07.690Z,100870.22
2022-08-19T04:59:37.529Z,100875.44
2022-08-19T05:02:05.828Z,100861.56
2022-08-19T05:04:34.560Z,100881.75
2022-08-19T05:07:02.649Z,100846.31
2022-08-19T05:09:33.046Z,100896.28
2022-08-19T05:12:18.714Z,100893.53
2022-08-19T05:14:48.369Z,100900.91
2022-08-19T05:17:36.264Z,100902.00
2022-08-19T05:20:22.887Z,100909.97
2022-08-19T05:22:50.786Z,100910.22
2022-08-19T05:25:20.818Z,100914.88
2022-08-19T05:27:48.973Z,100907.63
2022-08-19T05:30:18.764Z,100918.44
2022-08-19T05:33:01.613Z,100919.25
2022-08-19T05:35:29.454Z,100921.97
2022-08-19T05:38:02.693Z,100906.56
2022-08-19T05:40:32.311Z,100904.06
2022-08-19T05:43:00.398Z,100910.47
2022-08-19T05:45:29.929Z,100911.28
2022-08-19T05:47:58.287Z,100917.00
2022-08-19T05:50:27.241Z,100915.94
2022-08-19T05:52:55.197Z,100910.47
2022-08-19T05:55:23.593Z,100910.69
2022-08-19T05:57:51.333Z,100907.72
2022-08-19T06:00:24.133Z,100912.13
2022-08-19T06:02:56.473Z,100906.66
2022-08-19T06:05:24.386Z,100884.72
2022-08-19T06:07:52.203Z,100906.66
2022-08-19T06:10:21.473Z,100913.19
2022-08-19T06:12:49.286Z,100916.91
2022-08-19T06:15:17.046Z,100916.50
2022-08-19T06:17:45.531Z,100921.19
2022-08-19T06:20:15.872Z,100921.19
2022-08-19T06:22:44.391Z,100906.88
2022-08-19T06:25:12.359Z,100903.91
2022-08-19T06:27:53.366Z,100906.66
2022-08-19T06:30:28.607Z,100906.66
2022-08-19T06:32:56.433Z,100905.00
2022-08-19T06:35:26.320Z,100894.69
2022-08-19T06:37:54.684Z,100914.88
2022-08-19T06:40:22.870Z,100916.78
2022-08-19T06:42:55.228Z,100916.78
2022-08-19T06:45:24.636Z,100905.00
2022-08-19T06:47:55.280Z,100907.47
2022-08-19T06:50:25.001Z,100907.72
2022-08-19T06:52:55.324Z,100827.63
2022-08-19T06:55:23.334Z,100926.06
2022-08-19T06:57:54.558Z,100910.47
2022-08-19T07:00:23.101Z,100905.72
2022-08-19T07:02:56.149Z,100903.47
2022-08-19T07:05:27.339Z,100918.66
2022-08-19T07:07:59.687Z,100902.06
2022-08-19T07:10:33.025Z,100919.41
2022-08-19T07:13:01.279Z,100923.81
2022-08-19T07:15:29.162Z,100931.53
2022-08-19T07:17:57.087Z,100927.97
2022-08-19T07:20:28.597Z,100933.44
2022-08-19T07:22:58.753Z,100937.00
2022-08-19T07:25:32.373Z,100938.06
2022-08-19T07:28:01.486Z,100940.81
2022-08-19T07:30:29.964Z,100935.84
2022-08-19T07:32:59.594Z,100957.00
2022-08-19T07:35:33.132Z,100959.72
2022-08-19T07:38:03.650Z,100958.91
2022-08-19T07:40:32.450Z,100962.47
2022-08-19T07:43:00.230Z,100965.22
2022-08-19T07:45:29.427Z,100953.00
2022-08-19T07:47:57.215Z,100967.09
2022-08-19T07:50:25.335Z,100931.03
2022-08-19T07:52:53.123Z,100976.16
2022-08-19T07:55:40.428Z,100985.44
2022-08-19T07:58:08.792Z,100978.06
2022-08-19T08:00:37.360Z,100981.63
2022-08-19T08:03:05.280Z,100977.22
2022-08-19T08:05:50.812Z,100981.88
2022-08-19T08:08:36.096Z,100979.97
2022-08-19T08:11:07.806Z,100874.06
2022-08-19T08:13:36.280Z,100985.44
2022-08-19T08:16:10.320Z,100985.44
2022-08-19T08:18:50.257Z,100971.88
2022-08-19T08:21:18.764Z,100981.03
2022-08-19T08:23:46.591Z,100980.78
2022-08-19T08:26:16.995Z,100982.69
2022-08-19T08:28:49.456Z,100983.53
2022-08-19T08:31:19.525Z,100990.69
2022-08-19T08:33:48.144Z,100987.09
2022-08-19T08:36:16.049Z,100979.97
2022-08-19T08:38:44.087Z,100985.44
2022-08-19T08:41:20.480Z,100983.53
2022-08-19T08:43:49.227Z,100977.22
2022-08-19T08:46:30.867Z,100982.69
2022-08-19T08:49:04.723Z,100988.19
2022-08-19T08:51:35.771Z,100958.28
2022-08-19T08:54:04.641Z,100980.78
2022-08-19T08:56:33.785Z,100978.06
2022-08-19T08:59:02.454Z,100978.06
2022-08-19T09:01:31.024Z,100961.44
2022-08-19T09:04:02.782Z,100984.59
2022-08-19T09:06:34.051Z,100977.81
2022-08-19T09:09:12.158Z,100984.38
2022-08-19T09:11:49.946Z,100988.19
2022-08-19T09:14:49.784Z,100974.50
2022-08-19T09:17:18.506Z,100965.59
2022-08-19T09:19:54.774Z,100982.69
2022-08-19T09:22:26.092Z,100978.91
2022-08-19T09:24:55.532Z,100982.69
2022-08-19T09:27:42.017Z,100983.53
2022-08-19T09:30:14.488Z,100987.09
2022-08-19T09:32:44.036Z,100989.00
2022-08-19T09:35:12.188Z,100987.09
2022-08-19T09:37:40.481Z,100974.88
2022-08-19T09:40:11.982Z,100981.63
2022-08-19T09:42:50.124Z,100981.63
2022-08-19T09:45:22.434Z,100983.53
2022-08-19T09:47:50.394Z,100981.41
2022-08-19T09:50:19.072Z,100977.00
2022-08-19T09:52:54.006Z,100976.16
2022-08-19T09:55:31.053Z,100977.00
2022-08-19T09:58:02.367Z,100980.78
2022-08-19T10:00:31.694Z,100969.00
2022-08-19T10:02:59.568Z,100974.25
2022-08-19T10:05:44.795Z,100980.78
2022-08-19T10:08:16.556Z,100971.75
2022-08-19T10:10:46.516Z,100975.31
2022-08-19T10:13:17.156Z,100965.69
2022-08-19T10:15:47.281Z,100978.66
2022-08-19T10:18:15.725Z,100969.34
2022-08-19T10:20:46.496Z,100963.03
2022-08-19T10:23:20.122Z,100956.50
2022-08-19T10:25:48.695Z,100953.53
2022-08-19T10:28:19.094Z,100947.81
2022-08-19T10:30:47.987Z,100947.81
2022-08-19T10:33:16.143Z,100892.38
2022-08-19T10:36:04.194Z,100950.28
2022-08-19T10:38:33.095Z,100945.91
2022-08-19T10:41:08.831Z,100953.00
2022-08-19T10:43:39.284Z,100954.91
2022-08-19T10:46:13.698Z,100954.13
2022-08-19T10:48:42.226Z,100955.19
2022-08-19T10:51:27.717Z,100960.66
2022-08-19T10:53:56.341Z,100953.53
2022-08-19T10:56:41.867Z,100934.16
2022-08-19T10:59:11.095Z,100952.69
2022-08-19T11:01:38.929Z,100927.06
2022-08-19T11:04:09.419Z,100960.06
2022-08-19T11:06:37.361Z,100957.56
2022-08-19T11:09:05.652Z,100946.38
2022-08-19T11:11:34.199Z,100956.50
2022-08-19T11:14:07.247Z,100955.66
2022-08-19T11:16:36.669Z,100943.06
2022-08-19T11:19:04.769Z,100944.72
2022-08-19T11:21:33.423Z,100940.91
2022-08-19T11:24:02.449Z,100949.94
2022-08-19T11:26:30.537Z,100939.22
2022-08-19T11:28:58.713Z,100950.78
2022-08-19T11:31:29.240Z,100947.22
2022-08-19T11:34:00.726Z,100944.47
2022-08-19T11:36:28.573Z,100939.84
2022-08-19T11:38:56.413Z,100942.56
2022-08-19T11:41:26.087Z,100944.47
2022-08-19T11:43:55.203Z,100934.34
2022-08-19T11:46:23.572Z,100935.44
2022-08-19T11:48:51.773Z,100926.38
2022-08-19T11:51:22.660Z,100933.53
2022-08-19T11:53:51.366Z,100896.22
2022-08-19T11:56:19.633Z,100919.00
2022-08-19T11:58:47.486Z,100866.69
2022-08-19T12:01:18.356Z,100903.00
2022-08-19T12:03:46.607Z,100921.50
2022-08-19T12:06:17.076Z,100923.41
2022-08-19T12:08:46.457Z,100914.50
2022-08-19T12:11:14.832Z,100925.31
2022-08-19T12:13:45.928Z,100926.97
2022-08-19T12:16:15.949Z,100923.41
2022-08-19T12:18:44.832Z,100917.09
2022-08-19T12:21:14.618Z,100922.56
2022-08-19T12:23:42.423Z,100910.56
2022-08-19T12:26:12.658Z,100915.19
2022-08-19T12:28:40.706Z,100915.19
2022-08-19T12:31:08.578Z,100910.56
2022-08-19T12:33:36.463Z,100910.56
2022-08-19T12:36:06.361Z,100905.91
2022-08-19T12:38:35.355Z,100905.66
2022-08-19T12:41:07.500Z,100898.25
2022-08-19T12:43:37.951Z,100897.19
2022-08-19T12:46:06.129Z,100905.66
2022-08-19T12:48:35.065Z,100901.84
2022-08-19T12:51:03.642Z,100906.47
2022-08-19T12:53:31.596Z,100908.38
2022-08-19T12:56:00.982Z,100899.94
2022-08-19T12:58:30.454Z,100864.72
2022-08-19T13:01:02.721Z,100904.09
2022-08-19T13:03:30.625Z,100900.28
2022-08-19T13:05:58.603Z,100895.63
2022-08-19T13:08:35.481Z,100892.06
2022-08-19T13:11:09.903Z,100885.75
2022-08-19T13:13:41.730Z,100889.34
2022-08-19T13:16:12.071Z,100882.19
2022-08-19T13:18:40.487Z,100879.47
2022-08-19T13:21:09.019Z,100819.09
2022-08-19T13:23:37.483Z,100877.56
2022-08-19T13:26:06.800Z,100881.91
2022-08-19T13:28:48.655Z,100876.72
2022-08-19T13:31:36.880Z,100873.97
2022-08-19T13:34:06.688Z,100872.31
2022-08-19T13:36:34.590Z,100872.31
2022-08-19T13:39:02.464Z,100850.25
2022-08-19T13:41:31.586Z,100837.88
2022-08-19T13:43:59.569Z,100853.63
2022-08-19T13:46:30.393Z,100853.47
2022-08-19T13:48:58.571Z,100855.38
2022-08-19T13:51:26.489Z,100858.72
2022-08-19T13:53:55.386Z,100855.75
2022-08-19T13:56:26.235Z,100853.84
2022-08-19T13:58:54.704Z,100850.03
2022-08-19T14:01:28.616Z,100841.56
2022-08-19T14:03:56.730Z,100832.16
2022-08-19T14:06:24.640Z,100777.75
2022-08-19T14:08:53.764Z,100843.00
2022-08-19T14:11:23.876Z,100846.53
2022-08-19T14:13:52.020Z,100846.53
2022-08-19T14:16:19.821Z,100845.47
2022-08-19T14:18:50.120Z,100838.91
2022-08-19T14:21:18.623Z,100841.66
2022-08-19T14:23:47.074Z,100825.84
2022-08-19T14:26:16.921Z,100824.53
2022-08-19T14:28:44.794Z,100802.03
2022-08-19T14:31:12.966Z,100831.97
2022-08-19T14:33:41.423Z,100841.66
2022-08-19T14:36:10.745Z,100846.88
2022-08-19T14:38:38.574Z,100839.75
2022-08-19T14:41:11.389Z,100842.47
2022-08-19T14:43:39.718Z,100806.19
2022-08-19T14:46:08.227Z,100739.81
2022-08-19T14:48:41.452Z,100852.59
2022-08-19T14:51:10.879Z,100859.16
2022-08-19T14:53:39.104Z,100846.28
2022-08-19T14:56:09.843Z,100851.78
2022-08-19T14:58:39.215Z,100850.38
2022-08-19T15:01:07.387Z,100860.22
2022-08-19T15:03:35.169Z,100856.41
2022-08-19T15:06:03.326Z,100859.16
2022-08-19T15:08:33.398Z,100769.75
2022-08-19T15:11:01.177Z,100862.16
2022-08-19T15:13:31.085Z,100857.47
2022-08-19T15:15:59.187Z,100858.59
2022-08-19T15:18:27.044Z,100865.69
2022-08-19T15:20:55.141Z,100808.66
2022-08-19T15:26:19.639Z,100874.19
2022-08-19T15:28:47.514Z,100865.13
2022-08-19T15:31:25.513Z,100862.16
2022-08-19T15:33:58.514Z,100868.19
2022-08-19T15:36:27.125Z,100872.84
2022-08-19T15:38:55.551Z,100878.31
2022-08-19T15:41:26.168Z,100884.88
2022-08-19T15:43:55.480Z,100885.69
2022-08-19T15:46:29.036Z,100879.16
2022-08-19T15:48:59.952Z,100884.06
2022-08-19T15:51:28.914Z,100879.66
2022-08-19T15:53:57.156Z,100883.22
2022-08-19T15:56:27.503Z,100882.41
2022-08-19T15:59:13.401Z,100883.47
2022-08-19T16:01:58.583Z,100888.94
2022-08-19T16:04:43.774Z,100896.31
2022-08-19T16:07:12.651Z,100899.91
2022-08-19T16:09:40.470Z,100900.97
2022-08-19T16:12:10.554Z,100897.41
2022-08-19T16:14:39.699Z,100894.66
2022-08-19T16:17:11.533Z,100894.66
2022-08-19T16:19:40.438Z,100892.75
2022-08-19T16:22:10.010Z,100902.03
2022-08-19T16:24:37.900Z,100900.97
2022-08-19T16:27:05.791Z,100903.72
2022-08-19T16:29:39.333Z,100902.88
2022-08-19T16:32:10.839Z,100905.63
2022-08-19T16:34:39.084Z,100911.94
2022-08-19T16:37:06.936Z,100908.34
2022-08-19T16:39:34.831Z,100914.31
2022-08-19T16:42:02.705Z,100921.22
2022-08-19T16:44:30.598Z,100923.94
2022-08-19T16:47:00.085Z,100932.16
2022-08-19T16:49:52.485Z,100928.59
2022-08-19T16:52:16.190Z,100925.06
2022-08-19T16:54:44.062Z,100926.94
2022-08-19T16:57:12.699Z,100925.06
2022-08-19T16:59:43.157Z,100924.22
2022-08-19T17:02:18.405Z,100917.03
2022-08-19T17:04:55.763Z,100917.03
2022-08-19T17:07:26.300Z,100922.53
2022-08-19T17:09:55.236Z,100913.47
2022-08-19T17:12:30.218Z,100918.94
2022-08-19T17:14:59.880Z,100918.13
2022-08-19T17:17:29.663Z,100911.81
2022-08-19T17:19:57.620Z,100914.31
2022-08-19T17:22:25.678Z,100917.91
2022-08-19T17:24:56.135Z,100908.81
2022-08-19T17:27:25.617Z,100901.47
2022-08-19T17:29:53.728Z,100904.41
2022-08-19T17:32:24.869Z,100897.53
2022-08-19T17:34:55.152Z,100897.53
2022-08-19T17:37:23.006Z,100905.25
2022-08-19T17:39:50.803Z,100899.19
2022-08-19T17:42:19.435Z,100904.41
2022-08-19T17:44:50.965Z,100907.16
2022-08-19T17:47:19.392Z,100909.06
2022-08-19T17:49:47.263Z,100906.31
2022-08-19T17:52:16.719Z,100909.06
2022-08-19T17:54:44.525Z,100901.34
2022-08-19T17:57:12.363Z,100897.28
2022-08-19T17:59:40.427Z,100905.50
2022-08-19T18:02:10.139Z,100911.81
2022-08-19T18:04:38.325Z,100908.22
2022-08-19T18:07:06.308Z,100905.75
2022-08-19T18:09:42.215Z,100903.81
2022-08-19T18:12:11.152Z,100907.41
2022-08-19T18:14:39.291Z,100878.25
2022-08-19T18:17:09.557Z,100912.03
2022-08-19T18:19:41.544Z,100919.69
2022-08-19T18:22:11.133Z,100914.78
2022-08-19T18:24:40.569Z,100921.91
2022-08-19T18:27:08.385Z,100923.00
2022-08-19T18:29:38.253Z,100925.72
2022-08-19T18:32:06.703Z,100939.41
2022-08-19T18:34:37.018Z,100932.03
2022-08-19T18:37:04.959Z,100928.47
2022-08-19T18:39:50.289Z,100933.94
2022-08-19T18:42:37.003Z,100935.88
2022-08-19T18:45:22.335Z,100931.47
2022-08-19T18:48:07.693Z,100939.69
2022-08-19T18:50:54.168Z,100944.31
2022-08-19T18:53:22.253Z,100941.59
2022-08-19T18:55:51.954Z,100937.78
2022-08-19T18:58:25.928Z,100934.22
2022-08-19T19:00:56.916Z,100934.22
2022-08-19T19:03:26.054Z,100941.59
2022-08-19T19:05:53.955Z,100940.53
2022-08-19T19:08:27.060Z,100944.31
2022-08-19T19:10:56.191Z,100943.25
2022-08-19T19:13:26.783Z,100943.25
2022-08-19T19:15:55.497Z,100946.22
2022-08-19T19:18:23.282Z,100952.53
2022-08-19T19:20:51.091Z,100950.63
2022-08-19T19:23:18.934Z,100955.28
2022-08-19T19:25:50.909Z,100959.91
2022-08-19T19:28:27.495Z,100951.72
2022-08-19T19:30:58.709Z,100958.03
2022-08-19T19:33:27.036Z,100957.19
2022-08-19T19:35:54.847Z,100959.91
2022-08-19T19:38:22.669Z,100960.75
2022-08-19T19:40:50.472Z,100964.31
2022-08-19T19:43:19.116Z,100957.19
2022-08-19T19:45:48.315Z,100968.97
2022-08-19T19:48:17.480Z,100975.28
2022-08-19T19:50:45.469Z,100968.13
2022-08-19T19:53:15.136Z,100963.50
2022-08-19T19:55:43.007Z,100960.75
2022-08-19T19:58:10.799Z,100960.66
2022-08-19T20:00:38.669Z,100969.81
2022-08-19T20:03:07.187Z,100978.03
2022-08-19T20:05:36.290Z,100981.81
2022-08-19T20:08:21.962Z,100987.31
2022-08-19T20:10:49.731Z,100982.06
2022-08-19T20:13:17.497Z,100988.38
2022-08-19T20:15:45.754Z,100995.75
2022-08-19T20:18:14.360Z,100998.50
2022-08-19T20:20:43.601Z,101007.53
2022-08-19T20:23:11.712Z,101013.00
2022-08-19T20:25:39.595Z,101011.09
2022-08-19T20:28:07.521Z,101009.44
2022-08-19T20:30:35.381Z,101017.66
2022-08-19T20:33:07.032Z,101017.88
2022-08-19T20:35:35.363Z,101023.13
2022-08-19T20:38:08.733Z,101024.78
2022-08-19T20:40:37.794Z,101019.56
2022-08-19T20:43:08.988Z,101019.56
2022-08-19T20:45:37.377Z,101023.13
2022-08-19T20:48:05.840Z,101026.69
2022-08-19T20:50:34.210Z,101035.97
2022-08-19T20:53:02.298Z,101027.53
2022-08-19T20:55:31.420Z,101028.59
2022-08-19T20:57:59.588Z,101034.09
2022-08-19T21:00:29.397Z,101038.72
2022-08-19T21:02:57.668Z,101033.75
2022-08-19T21:05:30.219Z,101036.81
2022-08-19T21:07:58.630Z,101035.97
2022-08-19T21:10:27.542Z,101038.72
2022-08-19T21:12:57.161Z,101039.56
2022-08-19T21:15:25.709Z,101045.25
2022-08-19T21:17:53.655Z,101048.00
2022-08-19T21:20:21.746Z,101056.22
2022-08-19T21:22:49.899Z,101052.66
2022-08-19T21:25:18.025Z,101041.72
2022-08-19T21:27:45.793Z,101048.00
2022-08-19T21:30:15.449Z,101048.84
2022-08-19T21:32:43.493Z,101045.25
2022-08-19T21:35:11.322Z,101041.72
2022-08-19T21:37:39.247Z,101046.09
2022-08-19T21:40:08.059Z,101044.47
2022-08-19T21:42:36.290Z,101048.00
2022-08-19T21:45:04.175Z,101048.84
2022-08-19T21:47:33.365Z,101048.00
2022-08-19T21:50:01.157Z,101043.63
2022-08-19T21:52:29.113Z,101053.47
2022-08-19T21:54:57.209Z,101053.97
2022-08-19T21:57:25.357Z,101050.75
2022-08-19T21:59:53.385Z,101054.31
2022-08-19T22:02:22.013Z,101050.75
2022-08-19T22:04:51.622Z,101046.94
2022-08-19T22:07:20.349Z,101054.31
2022-08-19T22:09:48.708Z,101053.47
2022-08-19T22:12:23.394Z,101052.66
2022-08-19T22:14:51.706Z,101053.47
2022-08-19T22:17:19.697Z,101051.00
2022-08-19T22:19:47.599Z,101058.16
2022-08-19T22:22:24.107Z,101053.47
2022-08-19T22:24:52.047Z,101054.56
2022-08-19T22:27:19.987Z,101057.31
2022-08-19T22:29:47.736Z,101054.56
2022-08-19T22:32:26.645Z,101051.84
2022-08-19T22:34:58.039Z,101056.47
2022-08-19T22:37:27.485Z,101054.56
2022-08-19T22:39:55.603Z,101054.22
2022-08-19T22:42:25.300Z,101060.06
2022-08-19T22:44:59.798Z,101059.22
2022-08-19T22:47:28.850Z,101053.75
2022-08-19T22:49:59.961Z,101061.94
2022-08-19T22:52:28.729Z,101069.09
2022-08-19T22:54:57.856Z,101071.84
2022-08-19T22:57:25.719Z,101069.09
2022-08-19T22:59:53.518Z,101069.34
2022-08-19T23:02:24.127Z,101077.31
2022-08-19T23:04:52.075Z,101067.16
2022-08-19T23:07:23.786Z,101064.69
2022-08-19T23:09:53.244Z,101062.19
2022-08-19T23:12:27.597Z,101066.38
2022-08-19T23:14:55.480Z,101065.53
2022-08-19T23:17:23.275Z,101055.41
2022-08-19T23:19:51.689Z,101060.88
2022-08-19T23:22:19.905Z,101063.63
2022-08-19T23:24:56.013Z,101065.53
2022-08-19T23:27:56.068Z,101067.44
2022-08-19T23:30:26.935Z,101067.44
2022-08-19T23:32:55.374Z,101060.28
2022-08-19T23:35:23.270Z,101061.34
2022-08-19T23:37:51.779Z,101070.16
2022-08-19T23:40:22.265Z,101065.53
2022-08-19T23:42:50.682Z,101078.38
2022-08-19T23:45:23.724Z,101081.13
2022-08-19T23:47:53.283Z,101069.00
2022-08-19T23:50:21.489Z,101068.25
2022-08-19T23:52:51.777Z,101077.53
2022-08-19T23:55:26.008Z,101061.94
2022-08-19T23:57:54.057Z,101051.25
